createdAt,value
2022-09-12T00:01:40.678Z,84.14
2022-09-12T00:08:00.589Z,83.92
2022-09-12T00:14:23.628Z,84.49
2022-09-12T00:20:43.654Z,84.65
2022-09-12T00:27:06.590Z,84.39
2022-09-12T00:33:26.625Z,84.57
2022-09-12T00:39:49.656Z,84.99
2022-09-12T00:46:09.633Z,85.31
2022-09-12T00:52:32.625Z,85.05
2022-09-12T00:58:52.581Z,84.99
2022-09-12T01:05:15.599Z,85.09
2022-09-12T01:11:35.650Z,85.25
2022-09-12T01:17:58.567Z,85.55
2022-09-12T01:24:18.556Z,85.67
2022-09-12T01:30:41.605Z,85.18
2022-09-12T01:37:01.608Z,85.21
2022-09-12T01:43:24.547Z,85.52
2022-09-12T01:49:44.703Z,85.47
2022-09-12T01:56:07.579Z,85.81
2022-09-12T02:02:27.587Z,85.54
2022-09-12T02:08:50.601Z,85.21
2022-09-12T02:15:10.572Z,85.2
2022-09-12T02:21:33.578Z,85.15
2022-09-12T02:27:53.654Z,85.22
2022-09-12T02:34:16.566Z,85.37
2022-09-12T02:40:36.620Z,84.97
2022-09-12T02:46:59.619Z,85.26
2022-09-12T02:53:19.656Z,85.33
2022-09-12T02:59:42.604Z,85.42
2022-09-12T03:06:02.722Z,85.43
2022-09-12T03:12:25.618Z,85.35
2022-09-12T03:18:45.630Z,85.71
2022-09-12T03:34:55.580Z,85.76
2022-09-12T03:41:15.575Z,85.5
2022-09-12T03:47:38.612Z,85.51
2022-09-12T03:53:58.596Z,85.58
2022-09-12T04:00:21.568Z,85.51
2022-09-12T04:06:41.575Z,85.39
2022-09-12T04:13:04.588Z,85.98
2022-09-12T04:19:24.578Z,85.98
2022-09-12T04:25:47.586Z,85.89
2022-09-12T04:32:07.585Z,85.76
2022-09-12T04:38:30.581Z,85.59
2022-09-12T04:44:50.549Z,85.78
2022-09-12T04:51:13.585Z,85.8
2022-09-12T04:57:33.636Z,85.89
2022-09-12T05:03:56.574Z,85.67
2022-09-12T05:10:16.598Z,85.37
2022-09-12T05:16:39.590Z,85.6
2022-09-12T05:22:59.587Z,85.88
2022-09-12T05:29:22.647Z,85.51
2022-09-12T05:35:42.566Z,85.4
2022-09-12T05:42:05.578Z,85.1
2022-09-12T05:48:25.596Z,84.9
2022-09-12T05:54:48.594Z,84.38
2022-09-12T06:01:08.626Z,84.55
2022-09-12T06:07:31.621Z,84.36
2022-09-12T06:13:51.584Z,83.85
2022-09-12T06:20:14.572Z,83.46
2022-09-12T06:26:34.601Z,83.34
2022-09-12T06:32:57.559Z,82.88
2022-09-12T06:39:17.563Z,82.58
2022-09-12T06:45:40.662Z,82.54
2022-09-12T06:52:00.569Z,82.59
2022-09-12T06:58:23.586Z,82.04
2022-09-12T07:04:43.588Z,81.18
2022-09-12T07:11:06.568Z,80.81
2022-09-12T07:17:26.683Z,80.2
2022-09-12T07:23:49.610Z,79.86
2022-09-12T07:30:09.625Z,80.09
2022-09-12T07:36:32.614Z,78.59
2022-09-12T07:42:52.620Z,78.26
2022-09-12T07:49:15.641Z,78.41
2022-09-12T07:55:35.590Z,77.82
2022-09-12T08:01:58.623Z,77.42
2022-09-12T08:08:18.600Z,76.27
2022-09-12T08:14:41.615Z,75.36
2022-09-12T08:21:01.629Z,74.83
2022-09-12T08:27:24.603Z,74.79
2022-09-12T08:33:44.628Z,73.96
2022-09-12T08:40:07.618Z,73.89
2022-09-12T09:03:10.597Z,72.56
2022-09-12T09:09:33.572Z,70.81
2022-09-12T09:15:53.709Z,71.49
2022-09-12T09:22:16.590Z,69.43
2022-09-12T09:28:36.645Z,68.76
2022-09-12T09:34:59.589Z,68.75
2022-09-12T09:41:19.589Z,66.61
2022-09-12T09:47:42.589Z,66.17
2022-09-12T09:54:02.629Z,62.91
2022-09-12T10:00:25.652Z,62.57
2022-09-12T10:06:45.576Z,60.14
2022-09-12T10:13:08.556Z,57.76
2022-09-12T10:19:28.640Z,56.25
2022-09-12T10:25:51.568Z,56.34
2022-09-12T10:32:11.566Z,55.28
2022-09-12T10:38:34.789Z,54.88
2022-09-12T10:44:54.563Z,54.26
2022-09-12T10:51:17.582Z,52.32
2022-09-12T10:57:37.587Z,52.35
2022-09-12T11:04:00.587Z,51.25
2022-09-12T11:10:20.574Z,48.74
2022-09-12T11:16:43.597Z,47.95
2022-09-12T11:23:03.595Z,45.94
2022-09-12T11:29:26.569Z,45.93
2022-09-12T11:35:46.866Z,45.27
2022-09-12T11:42:09.572Z,43.92
2022-09-12T11:48:29.574Z,43.19
2022-09-12T11:54:53.808Z,43.11
2022-09-12T12:01:12.578Z,41.93
2022-09-12T12:07:35.581Z,41.87
2022-09-12T12:13:55.647Z,43.72
2022-09-12T12:20:18.561Z,42.96
2022-09-12T12:26:38.625Z,41.39
2022-09-12T12:33:01.689Z,39.18
2022-09-12T12:39:21.643Z,40.45
2022-09-12T12:45:44.571Z,38.6
2022-09-12T12:52:04.598Z,38.66
2022-09-12T12:58:27.581Z,36.85
2022-09-12T13:04:47.565Z,37.92
2022-09-12T13:11:10.616Z,35.94
2022-09-12T13:17:30.579Z,37.34
2022-09-12T13:23:53.566Z,35.66
2022-09-12T13:30:13.640Z,33.49
2022-09-12T13:36:36.587Z,33.61
2022-09-12T13:42:56.609Z,35.08
2022-09-12T13:49:19.840Z,36.27
2022-09-12T13:55:39.586Z,37.27
2022-09-12T14:02:02.628Z,36.42
2022-09-12T14:18:10.520Z,41.2
2022-09-12T14:24:30.550Z,39.97
2022-09-12T14:30:53.573Z,40.08
2022-09-12T14:37:13.606Z,40.73
2022-09-12T14:43:36.566Z,40.92
2022-09-12T14:49:56.579Z,41.4
2022-09-12T14:56:19.588Z,40.62
2022-09-12T15:02:39.590Z,40.19
2022-09-12T15:09:03.795Z,41.26
2022-09-12T15:15:23.592Z,42.04
2022-09-12T15:21:46.581Z,41.78
2022-09-12T15:28:06.565Z,41.54
2022-09-12T15:34:29.606Z,42.79
2022-09-12T15:40:49.563Z,42.41
2022-09-12T15:47:12.562Z,42.07
2022-09-12T15:53:32.598Z,42.92
2022-09-12T15:59:55.565Z,43.05
2022-09-12T16:06:15.570Z,43.33
2022-09-12T16:12:38.588Z,44.33
2022-09-12T16:18:58.583Z,44.49
2022-09-12T16:25:21.574Z,45.31
2022-09-12T16:31:41.587Z,44.69
2022-09-12T16:38:04.583Z,45.08
2022-09-12T16:44:24.568Z,45.72
2022-09-12T16:50:47.638Z,45.5
2022-09-12T16:57:07.570Z,46.42
2022-09-12T17:03:30.561Z,45.86
2022-09-12T17:09:50.693Z,46.67
2022-09-12T17:16:13.669Z,47.27
2022-09-12T17:22:33.557Z,48.43
2022-09-12T17:28:56.604Z,48.13
2022-09-12T17:35:16.561Z,48.25
2022-09-12T17:41:39.583Z,49.74
2022-09-12T17:47:59.587Z,49.58
2022-09-12T17:54:22.551Z,51.06
2022-09-12T18:00:42.581Z,51.63
2022-09-12T18:07:05.583Z,52.75
2022-09-12T18:13:25.558Z,53.26
2022-09-12T18:19:52.926Z,54.59
2022-09-12T18:26:08.582Z,55.87
2022-09-12T18:32:31.573Z,56.79
2022-09-12T18:38:51.551Z,57.79
2022-09-12T18:45:14.609Z,58.71
2022-09-12T18:51:34.551Z,59.67
2022-09-12T18:57:57.557Z,60.14
2022-09-12T19:04:17.687Z,61.05
2022-09-12T19:10:40.558Z,62.03
2022-09-12T19:17:00.569Z,61.75
2022-09-12T19:23:23.605Z,61.77
2022-09-12T19:29:43.558Z,62.08
2022-09-12T19:36:13.823Z,62.22
2022-09-12T19:42:26.660Z,62.57
2022-09-12T19:48:49.554Z,62.29
2022-09-12T19:55:09.570Z,62.66
2022-09-12T20:01:32.658Z,62.7
2022-09-12T20:17:58.488Z,63.17
2022-09-12T20:24:18.558Z,63.36
2022-09-12T20:30:41.563Z,63.89
2022-09-12T20:37:01.684Z,63.75
2022-09-12T20:43:24.548Z,63.99
2022-09-12T20:49:44.553Z,64.24
2022-09-12T20:56:07.623Z,64.25
2022-09-12T21:02:27.708Z,64.73
2022-09-12T21:08:50.592Z,64.57
2022-09-12T21:15:10.581Z,64.97
2022-09-12T21:21:33.561Z,64.88
2022-09-12T21:27:53.642Z,65.35
2022-09-12T21:34:16.692Z,65.63
2022-09-12T21:40:36.575Z,66
2022-09-12T21:46:59.558Z,66.11
2022-09-12T21:53:19.586Z,66.25
2022-09-12T21:59:42.557Z,66.27
2022-09-12T22:22:39.584Z,66.86
2022-09-12T22:28:59.563Z,67.01
2022-09-12T22:35:22.573Z,67.38
2022-09-12T22:41:42.599Z,67.01
2022-09-12T22:48:09.004Z,67.98
2022-09-12T22:54:25.566Z,67.96
2022-09-12T23:00:48.613Z,68.29
2022-09-12T23:07:08.555Z,68.43
2022-09-12T23:13:31.576Z,69.11
2022-09-12T23:19:51.592Z,69.58
2022-09-12T23:26:14.577Z,69.6
2022-09-12T23:32:34.567Z,69.64
2022-09-12T23:38:57.666Z,70.27
2022-09-12T23:45:17.552Z,70.33
2022-09-12T23:51:40.563Z,70.81
2022-09-12T23:58:00.601Z,70.97
